sensor_id;sensor_type;location;lat;lon;timestamp;P1;durP1;ratioP1;P2;durP2;ratioP2
77099;SDS011;66602;48.922;2.414;2023-08-08T00:00:13;6.57;;;2.28;;
77099;SDS011;66602;48.922;2.414;2023-08-08T00:02:39;3.63;;;2.20;;
77099;SDS011;66602;48.922;2.414;2023-08-08T00:05:04;3.97;;;2.00;;
77099;SDS011;66602;48.922;2.414;2023-08-08T00:07:30;2.28;;;1.85;;
77099;SDS011;66602;48.922;2.414;2023-08-08T00:09:57;2.35;;;2.05;;
77099;SDS011;66602;48.922;2.414;2023-08-08T00:12:23;5.50;;;2.05;;
77099;SDS011;66602;48.922;2.414;2023-08-08T00:14:48;1.98;;;1.65;;
77099;SDS011;66602;48.922;2.414;2023-08-08T00:17:14;2.15;;;1.85;;
77099;SDS011;66602;48.922;2.414;2023-08-08T00:19:40;3.53;;;1.83;;
77099;SDS011;66602;48.922;2.414;2023-08-08T00:22:05;1.80;;;1.70;;
77099;SDS011;66602;48.922;2.414;2023-08-08T00:24:31;4.88;;;1.90;;
77099;SDS011;66602;48.922;2.414;2023-08-08T00:26:57;6.40;;;1.73;;
77099;SDS011;66602;48.922;2.414;2023-08-08T00:29:22;1.90;;;1.70;;
77099;SDS011;66602;48.922;2.414;2023-08-08T00:31:48;6.63;;;2.05;;
77099;SDS011;66602;48.922;2.414;2023-08-08T00:34:13;5.88;;;2.10;;
77099;SDS011;66602;48.922;2.414;2023-08-08T00:36:39;2.38;;;1.77;;
77099;SDS011;66602;48.922;2.414;2023-08-08T00:39:04;3.03;;;2.13;;
77099;SDS011;66602;48.922;2.414;2023-08-08T00:41:29;4.03;;;2.70;;
77099;SDS011;66602;48.922;2.414;2023-08-08T00:43:55;3.78;;;2.10;;
77099;SDS011;66602;48.922;2.414;2023-08-08T00:46:21;2.25;;;2.00;;
77099;SDS011;66602;48.922;2.414;2023-08-08T00:48:47;2.20;;;1.88;;
77099;SDS011;66602;48.922;2.414;2023-08-08T00:51:12;3.83;;;1.90;;
77099;SDS011;66602;48.922;2.414;2023-08-08T00:53:39;2.40;;;1.65;;
77099;SDS011;66602;48.922;2.414;2023-08-08T00:56:04;4.95;;;1.80;;
77099;SDS011;66602;48.922;2.414;2023-08-08T00:58:30;1.70;;;1.50;;
77099;SDS011;66602;48.922;2.414;2023-08-08T01:00:55;4.30;;;2.05;;
77099;SDS011;66602;48.922;2.414;2023-08-08T01:03:24;1.88;;;1.77;;
77099;SDS011;66602;48.922;2.414;2023-08-08T01:05:58;2.42;;;2.22;;
77099;SDS011;66602;48.922;2.414;2023-08-08T01:08:27;2.80;;;2.50;;
77099;SDS011;66602;48.922;2.414;2023-08-08T01:10:58;2.33;;;2.13;;
77099;SDS011;66602;48.922;2.414;2023-08-08T01:13:25;4.40;;;2.35;;
77099;SDS011;66602;48.922;2.414;2023-08-08T01:15:53;5.45;;;2.33;;
77099;SDS011;66602;48.922;2.414;2023-08-08T01:18:21;7.45;;;2.33;;
77099;SDS011;66602;48.922;2.414;2023-08-08T01:20:47;2.85;;;2.53;;
77099;SDS011;66602;48.922;2.414;2023-08-08T01:25:42;3.88;;;3.10;;
77099;SDS011;66602;48.922;2.414;2023-08-08T01:28:08;5.03;;;2.58;;
77099;SDS011;66602;48.922;2.414;2023-08-08T01:30:34;2.40;;;2.30;;
77099;SDS011;66602;48.922;2.414;2023-08-08T01:33:00;1.95;;;1.85;;
77099;SDS011;66602;48.922;2.414;2023-08-08T01:35:26;3.83;;;2.33;;
77099;SDS011;66602;48.922;2.414;2023-08-08T01:37:58;5.68;;;2.42;;
77099;SDS011;66602;48.922;2.414;2023-08-08T01:40:36;3.67;;;2.38;;
77099;SDS011;66602;48.922;2.414;2023-08-08T01:43:04;2.60;;;1.92;;
77099;SDS011;66602;48.922;2.414;2023-08-08T01:45:30;3.17;;;2.13;;
77099;SDS011;66602;48.922;2.414;2023-08-08T01:47:55;2.03;;;1.92;;
77099;SDS011;66602;48.922;2.414;2023-08-08T01:50:21;1.98;;;1.88;;
77099;SDS011;66602;48.922;2.414;2023-08-08T01:52:46;4.57;;;2.15;;
77099;SDS011;66602;48.922;2.414;2023-08-08T01:55:12;3.50;;;2.10;;
77099;SDS011;66602;48.922;2.414;2023-08-08T01:57:38;4.30;;;2.25;;
77099;SDS011;66602;48.922;2.414;2023-08-08T02:00:04;2.60;;;1.85;;
77099;SDS011;66602;48.922;2.414;2023-08-08T02:02:31;5.72;;;2.67;;
77099;SDS011;66602;48.922;2.414;2023-08-08T02:04:56;3.05;;;2.20;;
77099;SDS011;66602;48.922;2.414;2023-08-08T02:07:22;5.53;;;2.13;;
77099;SDS011;66602;48.922;2.414;2023-08-08T02:09:47;3.20;;;2.20;;
77099;SDS011;66602;48.922;2.414;2023-08-08T02:12:15;4.38;;;2.10;;
77099;SDS011;66602;48.922;2.414;2023-08-08T02:14:41;2.40;;;2.20;;
77099;SDS011;66602;48.922;2.414;2023-08-08T02:17:07;6.15;;;1.98;;
77099;SDS011;66602;48.922;2.414;2023-08-08T02:19:32;1.85;;;1.73;;
77099;SDS011;66602;48.922;2.414;2023-08-08T02:21:58;2.85;;;2.08;;
77099;SDS011;66602;48.922;2.414;2023-08-08T02:24:23;2.15;;;1.60;;
77099;SDS011;66602;48.922;2.414;2023-08-08T02:26:48;2.15;;;1.95;;
77099;SDS011;66602;48.922;2.414;2023-08-08T02:29:14;4.05;;;2.33;;
77099;SDS011;66602;48.922;2.414;2023-08-08T02:31:39;2.97;;;1.95;;
77099;SDS011;66602;48.922;2.414;2023-08-08T02:34:05;1.92;;;1.73;;
77099;SDS011;66602;48.922;2.414;2023-08-08T02:36:30;6.10;;;2.28;;
77099;SDS011;66602;48.922;2.414;2023-08-08T02:38:56;7.28;;;1.98;;
77099;SDS011;66602;48.922;2.414;2023-08-08T02:41:21;4.63;;;2.10;;
77099;SDS011;66602;48.922;2.414;2023-08-08T02:43:47;3.30;;;2.28;;
77099;SDS011;66602;48.922;2.414;2023-08-08T02:46:12;2.13;;;2.00;;
77099;SDS011;66602;48.922;2.414;2023-08-08T02:48:38;3.92;;;2.17;;
77099;SDS011;66602;48.922;2.414;2023-08-08T02:51:03;2.67;;;1.83;;
77099;SDS011;66602;48.922;2.414;2023-08-08T02:53:29;2.00;;;1.90;;
77099;SDS011;66602;48.922;2.414;2023-08-08T02:55:54;3.00;;;2.45;;
77099;SDS011;66602;48.922;2.414;2023-08-08T02:58:20;2.08;;;1.88;;
77099;SDS011;66602;48.922;2.414;2023-08-08T03:00:45;5.45;;;2.22;;
77099;SDS011;66602;48.922;2.414;2023-08-08T03:03:11;2.25;;;2.08;;
77099;SDS011;66602;48.922;2.414;2023-08-08T03:05:36;6.25;;;2.67;;
77099;SDS011;66602;48.922;2.414;2023-08-08T03:08:02;3.97;;;2.30;;
77099;SDS011;66602;48.922;2.414;2023-08-08T03:10:28;2.70;;;2.50;;
77099;SDS011;66602;48.922;2.414;2023-08-08T03:12:53;5.57;;;2.50;;
77099;SDS011;66602;48.922;2.414;2023-08-08T03:15:19;2.95;;;2.33;;
77099;SDS011;66602;48.922;2.414;2023-08-08T03:17:44;2.63;;;2.28;;
77099;SDS011;66602;48.922;2.414;2023-08-08T03:20:10;4.88;;;2.33;;
77099;SDS011;66602;48.922;2.414;2023-08-08T03:22:36;3.67;;;2.47;;
77099;SDS011;66602;48.922;2.414;2023-08-08T03:25:02;3.15;;;2.40;;
77099;SDS011;66602;48.922;2.414;2023-08-08T03:27:29;2.90;;;2.38;;
77099;SDS011;66602;48.922;2.414;2023-08-08T03:29:55;2.35;;;1.90;;
77099;SDS011;66602;48.922;2.414;2023-08-08T03:32:21;3.13;;;2.20;;
77099;SDS011;66602;48.922;2.414;2023-08-08T03:34:47;3.03;;;2.30;;
77099;SDS011;66602;48.922;2.414;2023-08-08T03:37:13;8.85;;;2.75;;
77099;SDS011;66602;48.922;2.414;2023-08-08T03:39:38;5.15;;;3.03;;
77099;SDS011;66602;48.922;2.414;2023-08-08T03:42:04;2.53;;;2.30;;
77099;SDS011;66602;48.922;2.414;2023-08-08T03:44:30;4.78;;;2.35;;
77099;SDS011;66602;48.922;2.414;2023-08-08T03:46:55;2.20;;;2.10;;
77099;SDS011;66602;48.922;2.414;2023-08-08T03:49:21;7.40;;;2.83;;
77099;SDS011;66602;48.922;2.414;2023-08-08T03:51:46;9.75;;;2.40;;
77099;SDS011;66602;48.922;2.414;2023-08-08T03:54:13;10.23;;;3.05;;
77099;SDS011;66602;48.922;2.414;2023-08-08T03:56:39;5.63;;;2.88;;
77099;SDS011;66602;48.922;2.414;2023-08-08T03:59:04;5.85;;;3.00;;
77099;SDS011;66602;48.922;2.414;2023-08-08T04:01:30;3.00;;;2.40;;
77099;SDS011;66602;48.922;2.414;2023-08-08T04:03:57;4.47;;;3.10;;
77099;SDS011;66602;48.922;2.414;2023-08-08T04:06:22;7.10;;;2.60;;
77099;SDS011;66602;48.922;2.414;2023-08-08T04:08:48;8.20;;;3.38;;
77099;SDS011;66602;48.922;2.414;2023-08-08T04:11:13;4.47;;;2.85;;
77099;SDS011;66602;48.922;2.414;2023-08-08T04:13:38;5.18;;;2.83;;
77099;SDS011;66602;48.922;2.414;2023-08-08T04:16:04;3.45;;;3.00;;
77099;SDS011;66602;48.922;2.414;2023-08-08T04:18:30;5.60;;;3.15;;
77099;SDS011;66602;48.922;2.414;2023-08-08T04:20:55;2.72;;;2.53;;
77099;SDS011;66602;48.922;2.414;2023-08-08T04:23:21;3.72;;;2.65;;
77099;SDS011;66602;48.922;2.414;2023-08-08T04:25:50;3.90;;;2.65;;
77099;SDS011;66602;48.922;2.414;2023-08-08T04:28:15;8.38;;;3.72;;
77099;SDS011;66602;48.922;2.414;2023-08-08T04:30:41;2.83;;;2.55;;
77099;SDS011;66602;48.922;2.414;2023-08-08T04:33:06;2.90;;;2.70;;
77099;SDS011;66602;48.922;2.414;2023-08-08T04:35:32;4.68;;;3.03;;
77099;SDS011;66602;48.922;2.414;2023-08-08T04:37:57;4.22;;;2.70;;
77099;SDS011;66602;48.922;2.414;2023-08-08T04:40:23;4.90;;;3.00;;
77099;SDS011;66602;48.922;2.414;2023-08-08T04:42:48;5.78;;;3.17;;
77099;SDS011;66602;48.922;2.414;2023-08-08T04:45:14;9.48;;;3.28;;
77099;SDS011;66602;48.922;2.414;2023-08-08T04:47:39;3.92;;;2.95;;
77099;SDS011;66602;48.922;2.414;2023-08-08T04:50:05;2.75;;;2.55;;
77099;SDS011;66602;48.922;2.414;2023-08-08T04:52:31;6.90;;;2.63;;
77099;SDS011;66602;48.922;2.414;2023-08-08T04:54:56;4.95;;;3.10;;
77099;SDS011;66602;48.922;2.414;2023-08-08T04:57:22;4.72;;;2.83;;
77099;SDS011;66602;48.922;2.414;2023-08-08T04:59:47;3.70;;;2.65;;
77099;SDS011;66602;48.922;2.414;2023-08-08T05:02:13;5.07;;;2.88;;
77099;SDS011;66602;48.922;2.414;2023-08-08T05:04:38;7.15;;;2.85;;
77099;SDS011;66602;48.922;2.414;2023-08-08T05:07:04;11.30;;;2.95;;
77099;SDS011;66602;48.922;2.414;2023-08-08T05:09:29;6.00;;;2.65;;
77099;SDS011;66602;48.922;2.414;2023-08-08T05:11:54;3.33;;;2.53;;
77099;SDS011;66602;48.922;2.414;2023-08-08T05:14:20;3.28;;;2.70;;
77099;SDS011;66602;48.922;2.414;2023-08-08T05:16:45;8.13;;;3.20;;
77099;SDS011;66602;48.922;2.414;2023-08-08T05:19:11;8.45;;;3.17;;
77099;SDS011;66602;48.922;2.414;2023-08-08T05:21:37;5.32;;;2.72;;
77099;SDS011;66602;48.922;2.414;2023-08-08T05:24:02;6.07;;;2.70;;
77099;SDS011;66602;48.922;2.414;2023-08-08T05:26:29;6.65;;;2.72;;
77099;SDS011;66602;48.922;2.414;2023-08-08T05:28:55;6.82;;;2.80;;
77099;SDS011;66602;48.922;2.414;2023-08-08T05:31:20;5.75;;;2.63;;
77099;SDS011;66602;48.922;2.414;2023-08-08T05:33:47;4.05;;;2.22;;
77099;SDS011;66602;48.922;2.414;2023-08-08T05:36:13;2.28;;;2.17;;
77099;SDS011;66602;48.922;2.414;2023-08-08T05:38:39;6.00;;;2.55;;
77099;SDS011;66602;48.922;2.414;2023-08-08T05:41:06;3.58;;;2.28;;
77099;SDS011;66602;48.922;2.414;2023-08-08T05:43:31;4.07;;;2.30;;
77099;SDS011;66602;48.922;2.414;2023-08-08T05:45:57;9.63;;;2.63;;
77099;SDS011;66602;48.922;2.414;2023-08-08T05:48:22;6.18;;;2.63;;
77099;SDS011;66602;48.922;2.414;2023-08-08T05:50:48;6.13;;;2.33;;
77099;SDS011;66602;48.922;2.414;2023-08-08T05:53:13;3.00;;;2.20;;
77099;SDS011;66602;48.922;2.414;2023-08-08T05:55:40;4.13;;;2.25;;
77099;SDS011;66602;48.922;2.414;2023-08-08T05:58:07;5.35;;;2.00;;
77099;SDS011;66602;48.922;2.414;2023-08-08T06:00:33;3.47;;;1.85;;
77099;SDS011;66602;48.922;2.414;2023-08-08T06:02:59;6.25;;;1.95;;
77099;SDS011;66602;48.922;2.414;2023-08-08T06:05:24;3.13;;;1.77;;
77099;SDS011;66602;48.922;2.414;2023-08-08T06:07:50;4.60;;;1.90;;
77099;SDS011;66602;48.922;2.414;2023-08-08T06:10:16;3.95;;;2.20;;
77099;SDS011;66602;48.922;2.414;2023-08-08T06:12:41;4.53;;;2.60;;
77099;SDS011;66602;48.922;2.414;2023-08-08T06:15:07;4.30;;;2.35;;
77099;SDS011;66602;48.922;2.414;2023-08-08T06:17:33;7.05;;;1.60;;
77099;SDS011;66602;48.922;2.414;2023-08-08T06:19:59;8.10;;;2.30;;
77099;SDS011;66602;48.922;2.414;2023-08-08T06:22:24;6.03;;;3.30;;
77099;SDS011;66602;48.922;2.414;2023-08-08T06:24:50;10.25;;;4.75;;
77099;SDS011;66602;48.922;2.414;2023-08-08T06:27:16;11.45;;;4.95;;
77099;SDS011;66602;48.922;2.414;2023-08-08T06:29:42;9.73;;;3.80;;
77099;SDS011;66602;48.922;2.414;2023-08-08T06:32:07;11.05;;;4.13;;
77099;SDS011;66602;48.922;2.414;2023-08-08T06:34:33;6.35;;;2.60;;
77099;SDS011;66602;48.922;2.414;2023-08-08T06:36:58;5.50;;;2.00;;
77099;SDS011;66602;48.922;2.414;2023-08-08T06:39:24;2.92;;;1.90;;
77099;SDS011;66602;48.922;2.414;2023-08-08T06:41:50;4.60;;;1.52;;
77099;SDS011;66602;48.922;2.414;2023-08-08T06:44:15;13.30;;;2.20;;
77099;SDS011;66602;48.922;2.414;2023-08-08T06:46:40;1.88;;;1.63;;
77099;SDS011;66602;48.922;2.414;2023-08-08T06:49:06;5.65;;;1.45;;
77099;SDS011;66602;48.922;2.414;2023-08-08T06:51:32;4.05;;;1.35;;
77099;SDS011;66602;48.922;2.414;2023-08-08T06:53:58;2.53;;;1.95;;
77099;SDS011;66602;48.922;2.414;2023-08-08T06:56:23;4.28;;;1.92;;
77099;SDS011;66602;48.922;2.414;2023-08-08T06:58:51;3.85;;;1.75;;
77099;SDS011;66602;48.922;2.414;2023-08-08T07:01:16;2.00;;;1.48;;
77099;SDS011;66602;48.922;2.414;2023-08-08T07:03:42;2.35;;;1.50;;
77099;SDS011;66602;48.922;2.414;2023-08-08T07:06:08;1.63;;;1.40;;
77099;SDS011;66602;48.922;2.414;2023-08-08T07:08:34;2.95;;;1.58;;
77099;SDS011;66602;48.922;2.414;2023-08-08T07:11:00;7.40;;;1.67;;
77099;SDS011;66602;48.922;2.414;2023-08-08T07:13:25;5.80;;;1.80;;
77099;SDS011;66602;48.922;2.414;2023-08-08T07:15:51;4.32;;;1.70;;
77099;SDS011;66602;48.922;2.414;2023-08-08T07:18:17;4.35;;;2.13;;
77099;SDS011;66602;48.922;2.414;2023-08-08T07:20:42;3.13;;;1.60;;
77099;SDS011;66602;48.922;2.414;2023-08-08T07:23:08;5.60;;;1.50;;
77099;SDS011;66602;48.922;2.414;2023-08-08T07:25:33;6.60;;;2.00;;
77099;SDS011;66602;48.922;2.414;2023-08-08T07:27:59;7.72;;;1.95;;
77099;SDS011;66602;48.922;2.414;2023-08-08T07:30:25;1.75;;;1.38;;
77099;SDS011;66602;48.922;2.414;2023-08-08T07:32:50;5.32;;;1.80;;
77099;SDS011;66602;48.922;2.414;2023-08-08T07:35:16;4.80;;;1.60;;
77099;SDS011;66602;48.922;2.414;2023-08-08T07:37:42;1.88;;;1.50;;
77099;SDS011;66602;48.922;2.414;2023-08-08T07:40:15;3.55;;;1.60;;
77099;SDS011;66602;48.922;2.414;2023-08-08T07:42:43;9.10;;;1.98;;
77099;SDS011;66602;48.922;2.414;2023-08-08T07:45:09;4.70;;;1.98;;
77099;SDS011;66602;48.922;2.414;2023-08-08T07:47:34;3.45;;;1.98;;
77099;SDS011;66602;48.922;2.414;2023-08-08T07:50:00;8.15;;;1.55;;
77099;SDS011;66602;48.922;2.414;2023-08-08T07:52:25;1.60;;;1.50;;
77099;SDS011;66602;48.922;2.414;2023-08-08T07:54:51;4.95;;;1.45;;
77099;SDS011;66602;48.922;2.414;2023-08-08T07:57:16;5.35;;;2.08;;
77099;SDS011;66602;48.922;2.414;2023-08-08T07:59:42;6.18;;;2.03;;
77099;SDS011;66602;48.922;2.414;2023-08-08T08:02:07;5.05;;;1.92;;
77099;SDS011;66602;48.922;2.414;2023-08-08T08:04:33;8.70;;;2.20;;
77099;SDS011;66602;48.922;2.414;2023-08-08T08:06:59;5.68;;;1.67;;
77099;SDS011;66602;48.922;2.414;2023-08-08T08:09:25;3.60;;;1.90;;
77099;SDS011;66602;48.922;2.414;2023-08-08T08:11:50;3.72;;;2.10;;
77099;SDS011;66602;48.922;2.414;2023-08-08T08:14:16;6.40;;;1.55;;
77099;SDS011;66602;48.922;2.414;2023-08-08T08:16:41;5.47;;;1.90;;
77099;SDS011;66602;48.922;2.414;2023-08-08T08:19:07;7.38;;;1.80;;
77099;SDS011;66602;48.922;2.414;2023-08-08T08:21:32;3.38;;;2.00;;
77099;SDS011;66602;48.922;2.414;2023-08-08T08:23:58;3.78;;;1.60;;
77099;SDS011;66602;48.922;2.414;2023-08-08T08:26:23;2.53;;;1.45;;
77099;SDS011;66602;48.922;2.414;2023-08-08T08:28:49;2.90;;;1.90;;
77099;SDS011;66602;48.922;2.414;2023-08-08T08:31:14;4.88;;;1.77;;
77099;SDS011;66602;48.922;2.414;2023-08-08T08:33:40;5.55;;;1.70;;
77099;SDS011;66602;48.922;2.414;2023-08-08T08:36:05;2.17;;;1.80;;
77099;SDS011;66602;48.922;2.414;2023-08-08T08:38:31;3.17;;;1.85;;
77099;SDS011;66602;48.922;2.414;2023-08-08T08:40:57;2.25;;;1.75;;
77099;SDS011;66602;48.922;2.414;2023-08-08T08:43:23;8.38;;;1.90;;
77099;SDS011;66602;48.922;2.414;2023-08-08T08:45:53;5.60;;;1.50;;
77099;SDS011;66602;48.922;2.414;2023-08-08T08:48:19;4.80;;;1.63;;
77099;SDS011;66602;48.922;2.414;2023-08-08T08:50:49;6.65;;;1.80;;
77099;SDS011;66602;48.922;2.414;2023-08-08T08:53:15;5.85;;;1.70;;
77099;SDS011;66602;48.922;2.414;2023-08-08T08:55:42;6.53;;;2.38;;
77099;SDS011;66602;48.922;2.414;2023-08-08T08:58:08;3.88;;;1.73;;
77099;SDS011;66602;48.922;2.414;2023-08-08T09:00:34;4.35;;;1.80;;
77099;SDS011;66602;48.922;2.414;2023-08-08T09:03:00;2.22;;;1.63;;
77099;SDS011;66602;48.922;2.414;2023-08-08T09:05:26;3.58;;;1.55;;
77099;SDS011;66602;48.922;2.414;2023-08-08T09:07:52;3.45;;;1.63;;
77099;SDS011;66602;48.922;2.414;2023-08-08T09:10:18;6.13;;;1.30;;
77099;SDS011;66602;48.922;2.414;2023-08-08T09:12:44;4.57;;;1.75;;
77099;SDS011;66602;48.922;2.414;2023-08-08T09:15:13;1.85;;;1.58;;
77099;SDS011;66602;48.922;2.414;2023-08-08T09:17:43;2.50;;;1.55;;
77099;SDS011;66602;48.922;2.414;2023-08-08T09:20:10;4.47;;;1.50;;
77099;SDS011;66602;48.922;2.414;2023-08-08T09:22:37;3.70;;;1.67;;
77099;SDS011;66602;48.922;2.414;2023-08-08T09:25:03;4.57;;;2.10;;
77099;SDS011;66602;48.922;2.414;2023-08-08T09:27:30;4.57;;;1.35;;
77099;SDS011;66602;48.922;2.414;2023-08-08T09:29:55;5.45;;;1.88;;
77099;SDS011;66602;48.922;2.414;2023-08-08T09:32:21;6.15;;;1.55;;
77099;SDS011;66602;48.922;2.414;2023-08-08T09:34:47;2.15;;;1.48;;
77099;SDS011;66602;48.922;2.414;2023-08-08T09:37:12;6.20;;;1.52;;
77099;SDS011;66602;48.922;2.414;2023-08-08T09:39:39;4.47;;;1.75;;
77099;SDS011;66602;48.922;2.414;2023-08-08T09:42:05;3.05;;;1.73;;
77099;SDS011;66602;48.922;2.414;2023-08-08T09:44:33;2.70;;;1.45;;
77099;SDS011;66602;48.922;2.414;2023-08-08T09:47:00;2.25;;;1.80;;
77099;SDS011;66602;48.922;2.414;2023-08-08T09:49:26;1.88;;;1.60;;
77099;SDS011;66602;48.922;2.414;2023-08-08T09:51:52;1.95;;;1.75;;
77099;SDS011;66602;48.922;2.414;2023-08-08T09:54:17;3.22;;;1.70;;
77099;SDS011;66602;48.922;2.414;2023-08-08T09:56:43;2.70;;;1.80;;
77099;SDS011;66602;48.922;2.414;2023-08-08T09:59:09;3.38;;;1.50;;
77099;SDS011;66602;48.922;2.414;2023-08-08T10:01:36;3.78;;;1.90;;
77099;SDS011;66602;48.922;2.414;2023-08-08T10:04:05;5.13;;;1.30;;
77099;SDS011;66602;48.922;2.414;2023-08-08T10:06:31;1.92;;;1.30;;
77099;SDS011;66602;48.922;2.414;2023-08-08T10:08:57;4.03;;;1.70;;
77099;SDS011;66602;48.922;2.414;2023-08-08T10:11:23;2.17;;;1.80;;
77099;SDS011;66602;48.922;2.414;2023-08-08T10:13:49;4.07;;;1.75;;
77099;SDS011;66602;48.922;2.414;2023-08-08T10:16:16;7.00;;;2.70;;
77099;SDS011;66602;48.922;2.414;2023-08-08T10:18:44;7.35;;;2.17;;
77099;SDS011;66602;48.922;2.414;2023-08-08T10:21:11;2.90;;;1.90;;
77099;SDS011;66602;48.922;2.414;2023-08-08T10:23:38;2.53;;;1.77;;
77099;SDS011;66602;48.922;2.414;2023-08-08T10:26:05;7.60;;;1.58;;
77099;SDS011;66602;48.922;2.414;2023-08-08T10:28:34;5.00;;;1.55;;
77099;SDS011;66602;48.922;2.414;2023-08-08T10:31:00;4.43;;;1.50;;
77099;SDS011;66602;48.922;2.414;2023-08-08T10:33:40;6.45;;;1.80;;
77099;SDS011;66602;48.922;2.414;2023-08-08T10:36:08;3.20;;;2.03;;
77099;SDS011;66602;48.922;2.414;2023-08-08T10:38:41;3.80;;;2.85;;
77099;SDS011;66602;48.922;2.414;2023-08-08T10:41:17;3.55;;;2.22;;
77099;SDS011;66602;48.922;2.414;2023-08-08T10:43:53;3.33;;;2.17;;
77099;SDS011;66602;48.922;2.414;2023-08-08T10:46:27;3.47;;;2.10;;
77099;SDS011;66602;48.922;2.414;2023-08-08T10:48:55;5.68;;;1.98;;
77099;SDS011;66602;48.922;2.414;2023-08-08T10:51:31;3.05;;;1.60;;
77099;SDS011;66602;48.922;2.414;2023-08-08T10:56:40;2.42;;;1.58;;
77099;SDS011;66602;48.922;2.414;2023-08-08T10:59:15;2.17;;;1.70;;
77099;SDS011;66602;48.922;2.414;2023-08-08T11:01:44;1.85;;;1.70;;
77099;SDS011;66602;48.922;2.414;2023-08-08T11:04:11;4.50;;;1.85;;
77099;SDS011;66602;48.922;2.414;2023-08-08T11:06:37;3.03;;;1.77;;
77099;SDS011;66602;48.922;2.414;2023-08-08T11:09:07;2.38;;;2.15;;
77099;SDS011;66602;48.922;2.414;2023-08-08T11:11:37;3.88;;;2.63;;
77099;SDS011;66602;48.922;2.414;2023-08-08T11:14:10;2.75;;;2.00;;
77099;SDS011;66602;48.922;2.414;2023-08-08T11:16:36;4.18;;;2.00;;
77099;SDS011;66602;48.922;2.414;2023-08-08T11:19:02;4.55;;;1.85;;
77099;SDS011;66602;48.922;2.414;2023-08-08T11:21:29;1.83;;;1.48;;
77099;SDS011;66602;48.922;2.414;2023-08-08T11:23:54;1.70;;;1.60;;
77099;SDS011;66602;48.922;2.414;2023-08-08T11:26:20;1.90;;;1.35;;
77099;SDS011;66602;48.922;2.414;2023-08-08T11:28:49;1.67;;;1.58;;
77099;SDS011;66602;48.922;2.414;2023-08-08T11:31:16;3.72;;;1.35;;
77099;SDS011;66602;48.922;2.414;2023-08-08T11:33:46;2.63;;;1.52;;
77099;SDS011;66602;48.922;2.414;2023-08-08T11:36:15;1.50;;;1.40;;
77099;SDS011;66602;48.922;2.414;2023-08-08T11:38:41;2.10;;;1.38;;
77099;SDS011;66602;48.922;2.414;2023-08-08T11:41:09;1.25;;;1.17;;
77099;SDS011;66602;48.922;2.414;2023-08-08T11:43:36;2.03;;;1.48;;
77099;SDS011;66602;48.922;2.414;2023-08-08T11:46:03;3.75;;;1.63;;
77099;SDS011;66602;48.922;2.414;2023-08-08T11:48:32;3.20;;;2.90;;
77099;SDS011;66602;48.922;2.414;2023-08-08T11:50:58;1.85;;;1.63;;
77099;SDS011;66602;48.922;2.414;2023-08-08T11:53:23;4.53;;;1.75;;
77099;SDS011;66602;48.922;2.414;2023-08-08T11:55:49;2.58;;;1.90;;
77099;SDS011;66602;48.922;2.414;2023-08-08T11:58:14;1.55;;;1.38;;
77099;SDS011;66602;48.922;2.414;2023-08-08T12:00:42;2.03;;;1.40;;
77099;SDS011;66602;48.922;2.414;2023-08-08T12:03:10;2.20;;;1.58;;
77099;SDS011;66602;48.922;2.414;2023-08-08T12:05:36;3.47;;;1.58;;
77099;SDS011;66602;48.922;2.414;2023-08-08T12:08:05;1.60;;;1.50;;
77099;SDS011;66602;48.922;2.414;2023-08-08T12:10:32;5.07;;;1.60;;
77099;SDS011;66602;48.922;2.414;2023-08-08T12:12:58;0.90;;;0.90;;
77099;SDS011;66602;48.922;2.414;2023-08-08T12:15:34;3.08;;;1.65;;
77099;SDS011;66602;48.922;2.414;2023-08-08T12:18:01;2.78;;;1.50;;
77099;SDS011;66602;48.922;2.414;2023-08-08T12:20:28;2.63;;;1.60;;
77099;SDS011;66602;48.922;2.414;2023-08-08T12:22:56;4.78;;;1.50;;
77099;SDS011;66602;48.922;2.414;2023-08-08T12:25:25;2.47;;;1.20;;
77099;SDS011;66602;48.922;2.414;2023-08-08T12:27:51;1.45;;;1.35;;
77099;SDS011;66602;48.922;2.414;2023-08-08T12:30:16;2.72;;;1.30;;
77099;SDS011;66602;48.922;2.414;2023-08-08T12:32:44;4.78;;;1.50;;
77099;SDS011;66602;48.922;2.414;2023-08-08T12:35:10;2.95;;;1.55;;
77099;SDS011;66602;48.922;2.414;2023-08-08T12:37:35;2.03;;;1.70;;
77099;SDS011;66602;48.922;2.414;2023-08-08T12:40:01;1.23;;;1.13;;
77099;SDS011;66602;48.922;2.414;2023-08-08T12:42:27;3.08;;;1.40;;
77099;SDS011;66602;48.922;2.414;2023-08-08T12:44:53;2.80;;;1.92;;
77099;SDS011;66602;48.922;2.414;2023-08-08T12:47:19;3.25;;;1.73;;
77099;SDS011;66602;48.922;2.414;2023-08-08T12:49:45;1.60;;;1.30;;
77099;SDS011;66602;48.922;2.414;2023-08-08T12:52:11;2.03;;;1.55;;
77099;SDS011;66602;48.922;2.414;2023-08-08T12:54:37;3.08;;;1.30;;
77099;SDS011;66602;48.922;2.414;2023-08-08T12:57:03;2.10;;;1.42;;
77099;SDS011;66602;48.922;2.414;2023-08-08T12:59:29;1.70;;;1.60;;
77099;SDS011;66602;48.922;2.414;2023-08-08T13:01:54;3.13;;;1.27;;
77099;SDS011;66602;48.922;2.414;2023-08-08T13:04:20;2.05;;;1.38;;
77099;SDS011;66602;48.922;2.414;2023-08-08T13:06:46;2.80;;;1.75;;
77099;SDS011;66602;48.922;2.414;2023-08-08T13:09:13;2.22;;;1.35;;
77099;SDS011;66602;48.922;2.414;2023-08-08T13:11:39;1.88;;;1.30;;
77099;SDS011;66602;48.922;2.414;2023-08-08T13:14:05;1.65;;;1.55;;
77099;SDS011;66602;48.922;2.414;2023-08-08T13:16:31;3.28;;;2.40;;
77099;SDS011;66602;48.922;2.414;2023-08-08T13:18:57;2.03;;;1.67;;
77099;SDS011;66602;48.922;2.414;2023-08-08T13:21:22;7.72;;;1.88;;
77099;SDS011;66602;48.922;2.414;2023-08-08T13:23:48;1.63;;;1.52;;
77099;SDS011;66602;48.922;2.414;2023-08-08T13:26:14;1.67;;;1.02;;
77099;SDS011;66602;48.922;2.414;2023-08-08T13:28:39;2.25;;;1.40;;
77099;SDS011;66602;48.922;2.414;2023-08-08T13:31:05;1.25;;;1.15;;
77099;SDS011;66602;48.922;2.414;2023-08-08T13:33:32;3.63;;;1.40;;
77099;SDS011;66602;48.922;2.414;2023-08-08T13:35:59;1.88;;;1.35;;
77099;SDS011;66602;48.922;2.414;2023-08-08T13:38:25;2.17;;;1.30;;
77099;SDS011;66602;48.922;2.414;2023-08-08T13:40:50;1.88;;;1.48;;
77099;SDS011;66602;48.922;2.414;2023-08-08T13:43:16;5.18;;;1.60;;
77099;SDS011;66602;48.922;2.414;2023-08-08T13:45:41;7.60;;;1.80;;
77099;SDS011;66602;48.922;2.414;2023-08-08T13:48:07;4.47;;;1.52;;
77099;SDS011;66602;48.922;2.414;2023-08-08T13:50:32;6.63;;;1.90;;
77099;SDS011;66602;48.922;2.414;2023-08-08T13:52:58;1.75;;;1.65;;
77099;SDS011;66602;48.922;2.414;2023-08-08T13:55:23;2.92;;;2.00;;
77099;SDS011;66602;48.922;2.414;2023-08-08T13:57:50;2.00;;;1.80;;
77099;SDS011;66602;48.922;2.414;2023-08-08T14:00:16;1.40;;;1.27;;
77099;SDS011;66602;48.922;2.414;2023-08-08T14:02:41;7.63;;;1.40;;
77099;SDS011;66602;48.922;2.414;2023-08-08T14:05:07;2.70;;;1.70;;
77099;SDS011;66602;48.922;2.414;2023-08-08T14:07:33;6.13;;;1.90;;
77099;SDS011;66602;48.922;2.414;2023-08-08T14:10:00;2.15;;;1.90;;
77099;SDS011;66602;48.922;2.414;2023-08-08T14:12:26;2.67;;;1.30;;
77099;SDS011;66602;48.922;2.414;2023-08-08T14:14:52;4.72;;;1.58;;
77099;SDS011;66602;48.922;2.414;2023-08-08T14:17:17;1.38;;;1.27;;
77099;SDS011;66602;48.922;2.414;2023-08-08T14:19:43;3.92;;;1.33;;
77099;SDS011;66602;48.922;2.414;2023-08-08T14:22:08;5.72;;;1.80;;
77099;SDS011;66602;48.922;2.414;2023-08-08T14:24:35;3.13;;;1.40;;
77099;SDS011;66602;48.922;2.414;2023-08-08T14:27:01;1.23;;;1.20;;
77099;SDS011;66602;48.922;2.414;2023-08-08T14:29:27;1.65;;;1.50;;
77099;SDS011;66602;48.922;2.414;2023-08-08T14:31:53;5.63;;;1.35;;
77099;SDS011;66602;48.922;2.414;2023-08-08T14:34:18;1.27;;;1.20;;
77099;SDS011;66602;48.922;2.414;2023-08-08T14:36:44;1.88;;;1.42;;
77099;SDS011;66602;48.922;2.414;2023-08-08T14:39:10;2.88;;;1.42;;
77099;SDS011;66602;48.922;2.414;2023-08-08T14:41:36;2.15;;;1.50;;
77099;SDS011;66602;48.922;2.414;2023-08-08T14:44:01;1.80;;;1.70;;
77099;SDS011;66602;48.922;2.414;2023-08-08T14:46:27;2.22;;;1.70;;